Magalia, California
Current Conditions -  °F | °C
As of 8:53 PM on Wednesday 24 Dec 2014 (Local Time) from KOVE Reporting Station
Clear Clear  
Wind Chill: 44°   Ceiling: Unl
Heat Index: 47°   Visibility: 10mi
Dew Point: 37°   Wind: 7mph
Humidity: 68%   Direction: 330°NNW
Pressure: 30.01"   Gusts: NA
Location:  39.81°N, 121.57°W
Report Text: KOVE 250453Z AUTO 33006KT 10SM CLR 08/03 A3001 RMK AO2 SLP163 T00830028
Loading
Personal Weather Stations






























Interactive Weather Map New forecast layout! Learn more

10-Day Weather Forecast

Advertisements
Track Severe Weather on mobile